sensor_id;sensor_type;location;lat;lon;timestamp;pressure;altitude;pressure_sealevel;temperature;humidity
45403;BME280;47427;51.976;5.326;2024-02-21T00:00:47;102122.28;;;9.93;100.00
45403;BME280;47427;51.976;5.326;2024-02-21T00:03:50;102117.84;;;9.92;100.00
45403;BME280;47427;51.976;5.326;2024-02-21T00:06:53;102103.78;;;9.90;100.00
45403;BME280;47427;51.976;5.326;2024-02-21T00:09:56;102099.34;;;9.89;100.00
45403;BME280;47427;51.976;5.326;2024-02-21T00:12:58;102088.50;;;9.82;100.00
45403;BME280;47427;51.976;5.326;2024-02-21T00:16:04;102089.19;;;9.77;100.00
45403;BME280;47427;51.976;5.326;2024-02-21T00:19:07;102071.72;;;9.78;100.00
45403;BME280;47427;51.976;5.326;2024-02-21T00:22:10;102078.75;;;9.61;100.00
45403;BME280;47427;51.976;5.326;2024-02-21T00:25:12;102056.97;;;9.62;100.00
45403;BME280;47427;51.976;5.326;2024-02-21T00:28:14;102063.03;;;9.61;100.00
45403;BME280;47427;51.976;5.326;2024-02-21T00:31:17;102063.75;;;9.59;100.00
45403;BME280;47427;51.976;5.326;2024-02-21T00:34:20;102052.25;;;9.55;100.00
45403;BME280;47427;51.976;5.326;2024-02-21T00:37:21;102057.50;;;9.55;100.00
45403;BME280;47427;51.976;5.326;2024-02-21T00:40:24;102047.16;;;9.58;100.00
45403;BME280;47427;51.976;5.326;2024-02-21T00:43:27;102056.66;;;9.56;100.00
45403;BME280;47427;51.976;5.326;2024-02-21T00:46:30;102058.53;;;9.59;100.00
45403;BME280;47427;51.976;5.326;2024-02-21T00:49:32;102044.78;;;9.63;100.00
45403;BME280;47427;51.976;5.326;2024-02-21T00:52:35;102054.50;;;9.65;100.00
45403;BME280;47427;51.976;5.326;2024-02-21T00:55:38;102055.63;;;9.70;100.00
45403;BME280;47427;51.976;5.326;2024-02-21T00:58:41;102047.75;;;9.70;100.00
45403;BME280;47427;51.976;5.326;2024-02-21T01:01:44;102037.94;;;9.66;100.00
45403;BME280;47427;51.976;5.326;2024-02-21T01:04:45;102047.28;;;9.61;100.00
45403;BME280;47427;51.976;5.326;2024-02-21T01:07:48;102045.75;;;9.65;100.00
45403;BME280;47427;51.976;5.326;2024-02-21T01:10:51;102058.00;;;9.66;100.00
45403;BME280;47427;51.976;5.326;2024-02-21T01:13:55;102064.16;;;9.66;100.00
45403;BME280;47427;51.976;5.326;2024-02-21T01:16:57;102060.50;;;9.63;100.00
45403;BME280;47427;51.976;5.326;2024-02-21T01:20:00;102062.28;;;9.64;100.00
45403;BME280;47427;51.976;5.326;2024-02-21T01:23:03;102051.75;;;9.62;100.00
45403;BME280;47427;51.976;5.326;2024-02-21T01:26:06;102055.31;;;9.64;100.00
45403;BME280;47427;51.976;5.326;2024-02-21T01:29:09;102048.56;;;9.69;100.00
45403;BME280;47427;51.976;5.326;2024-02-21T01:32:12;102046.03;;;9.71;100.00
45403;BME280;47427;51.976;5.326;2024-02-21T01:35:14;102039.91;;;9.70;100.00
45403;BME280;47427;51.976;5.326;2024-02-21T01:38:17;102040.88;;;9.72;100.00
45403;BME280;47427;51.976;5.326;2024-02-21T01:41:19;102029.41;;;9.70;100.00
45403;BME280;47427;51.976;5.326;2024-02-21T01:44:22;102028.59;;;9.71;100.00
45403;BME280;47427;51.976;5.326;2024-02-21T01:47:24;102024.53;;;9.78;100.00
45403;BME280;47427;51.976;5.326;2024-02-21T01:50:28;102018.41;;;9.77;100.00
45403;BME280;47427;51.976;5.326;2024-02-21T01:53:34;102013.94;;;9.75;100.00
45403;BME280;47427;51.976;5.326;2024-02-21T01:56:39;102020.94;;;9.76;100.00
45403;BME280;47427;51.976;5.326;2024-02-21T01:59:42;102020.19;;;9.79;100.00
45403;BME280;47427;51.976;5.326;2024-02-21T02:02:46;102014.06;;;9.78;100.00
45403;BME280;47427;51.976;5.326;2024-02-21T02:05:49;102027.91;;;9.75;100.00
45403;BME280;47427;51.976;5.326;2024-02-21T02:08:53;102005.31;;;9.77;100.00
45403;BME280;47427;51.976;5.326;2024-02-21T02:11:57;102003.34;;;9.73;100.00
45403;BME280;47427;51.976;5.326;2024-02-21T02:15:02;102006.06;;;9.75;100.00
45403;BME280;47427;51.976;5.326;2024-02-21T02:18:08;102003.25;;;9.72;100.00
45403;BME280;47427;51.976;5.326;2024-02-21T02:21:37;101996.38;;;9.74;100.00
45403;BME280;47427;51.976;5.326;2024-02-21T02:24:42;101986.03;;;9.77;100.00
45403;BME280;47427;51.976;5.326;2024-02-21T02:27:44;101987.78;;;9.76;100.00
45403;BME280;47427;51.976;5.326;2024-02-21T02:30:46;101973.53;;;9.71;100.00
45403;BME280;47427;51.976;5.326;2024-02-21T02:33:49;101971.75;;;9.70;100.00
45403;BME280;47427;51.976;5.326;2024-02-21T02:36:52;101971.75;;;9.70;100.00
45403;BME280;47427;51.976;5.326;2024-02-21T02:39:57;101977.91;;;9.71;100.00
45403;BME280;47427;51.976;5.326;2024-02-21T02:42:58;101977.75;;;9.68;100.00
45403;BME280;47427;51.976;5.326;2024-02-21T02:46:00;101972.44;;;9.66;100.00
45403;BME280;47427;51.976;5.326;2024-02-21T02:49:02;101966.44;;;9.69;100.00
45403;BME280;47427;51.976;5.326;2024-02-21T02:52:05;101969.00;;;9.67;100.00
45403;BME280;47427;51.976;5.326;2024-02-21T02:55:08;101964.56;;;9.66;100.00
45403;BME280;47427;51.976;5.326;2024-02-21T02:58:10;101956.47;;;9.62;100.00
45403;BME280;47427;51.976;5.326;2024-02-21T03:01:13;101955.44;;;9.58;100.00
45403;BME280;47427;51.976;5.326;2024-02-21T03:04:16;101943.34;;;9.60;100.00
45403;BME280;47427;51.976;5.326;2024-02-21T03:07:20;101950.31;;;9.60;100.00
45403;BME280;47427;51.976;5.326;2024-02-21T03:10:22;101951.25;;;9.62;100.00
45403;BME280;47427;51.976;5.326;2024-02-21T03:13:25;101946.56;;;9.54;100.00
45403;BME280;47427;51.976;5.326;2024-02-21T03:16:28;101931.78;;;9.57;100.00
45403;BME280;47427;51.976;5.326;2024-02-21T03:19:31;101926.31;;;9.52;100.00
45403;BME280;47427;51.976;5.326;2024-02-21T03:22:32;101930.09;;;9.57;100.00
45403;BME280;47427;51.976;5.326;2024-02-21T03:25:35;101921.25;;;9.55;100.00
45403;BME280;47427;51.976;5.326;2024-02-21T03:28:38;101927.47;;;9.57;100.00
45403;BME280;47427;51.976;5.326;2024-02-21T03:31:43;101922.91;;;9.53;100.00
45403;BME280;47427;51.976;5.326;2024-02-21T03:34:45;101918.63;;;9.55;100.00
45403;BME280;47427;51.976;5.326;2024-02-21T03:37:48;101910.69;;;9.53;100.00
45403;BME280;47427;51.976;5.326;2024-02-21T03:40:51;101908.06;;;9.53;100.00
45403;BME280;47427;51.976;5.326;2024-02-21T03:43:54;101896.56;;;9.50;100.00
45403;BME280;47427;51.976;5.326;2024-02-21T03:46:57;101901.09;;;9.54;100.00
45403;BME280;47427;51.976;5.326;2024-02-21T03:49:59;101893.19;;;9.52;100.00
45403;BME280;47427;51.976;5.326;2024-02-21T03:53:03;101889.59;;;9.50;100.00
45403;BME280;47427;51.976;5.326;2024-02-21T03:56:06;101902.59;;;9.49;100.00
45403;BME280;47427;51.976;5.326;2024-02-21T03:59:10;101898.34;;;9.51;100.00
45403;BME280;47427;51.976;5.326;2024-02-21T04:02:11;101897.31;;;9.47;100.00
45403;BME280;47427;51.976;5.326;2024-02-21T04:05:16;101898.97;;;9.45;100.00
45403;BME280;47427;51.976;5.326;2024-02-21T04:08:19;101885.78;;;9.44;100.00
45403;BME280;47427;51.976;5.326;2024-02-21T04:11:22;101890.97;;;9.42;100.00
45403;BME280;47427;51.976;5.326;2024-02-21T04:14:23;101894.59;;;9.46;100.00
45403;BME280;47427;51.976;5.326;2024-02-21T04:17:26;101882.25;;;9.43;100.00
45403;BME280;47427;51.976;5.326;2024-02-21T04:20:29;101878.00;;;9.45;100.00
45403;BME280;47427;51.976;5.326;2024-02-21T04:23:32;101863.78;;;9.40;100.00
45403;BME280;47427;51.976;5.326;2024-02-21T04:26:34;101875.03;;;9.38;100.00
45403;BME280;47427;51.976;5.326;2024-02-21T04:29:37;101876.94;;;9.42;100.00
45403;BME280;47427;51.976;5.326;2024-02-21T04:32:40;101882.25;;;9.43;100.00
45403;BME280;47427;51.976;5.326;2024-02-21T04:35:43;101881.38;;;9.43;100.00
45403;BME280;47427;51.976;5.326;2024-02-21T04:38:45;101860.94;;;9.36;100.00
45403;BME280;47427;51.976;5.326;2024-02-21T04:41:48;101868.13;;;9.40;100.00
45403;BME280;47427;51.976;5.326;2024-02-21T04:44:51;101861.22;;;9.42;100.00
45403;BME280;47427;51.976;5.326;2024-02-21T04:47:54;101856.06;;;9.43;100.00
45403;BME280;47427;51.976;5.326;2024-02-21T04:50:55;101848.06;;;9.40;100.00
45403;BME280;47427;51.976;5.326;2024-02-21T04:53:58;101851.59;;;9.41;100.00
45403;BME280;47427;51.976;5.326;2024-02-21T04:57:01;101845.50;;;9.42;100.00
45403;BME280;47427;51.976;5.326;2024-02-21T05:00:04;101832.13;;;9.36;100.00
45403;BME280;47427;51.976;5.326;2024-02-21T05:03:06;101831.25;;;9.35;100.00
45403;BME280;47427;51.976;5.326;2024-02-21T05:06:09;101820.63;;;9.32;100.00
45403;BME280;47427;51.976;5.326;2024-02-21T05:09:12;101816.19;;;9.31;100.00
45403;BME280;47427;51.976;5.326;2024-02-21T05:12:15;101832.06;;;9.34;100.00
45403;BME280;47427;51.976;5.326;2024-02-21T05:15:18;101822.28;;;9.30;100.00
45403;BME280;47427;51.976;5.326;2024-02-21T05:18:20;101816.06;;;9.28;100.00
45403;BME280;47427;51.976;5.326;2024-02-21T05:21:24;101809.94;;;9.27;100.00
45403;BME280;47427;51.976;5.326;2024-02-21T05:24:26;101805.44;;;9.25;100.00
45403;BME280;47427;51.976;5.326;2024-02-21T05:27:29;101801.03;;;9.24;100.00
45403;BME280;47427;51.976;5.326;2024-02-21T05:30:32;101805.59;;;9.28;100.00
45403;BME280;47427;51.976;5.326;2024-02-21T05:33:35;101798.50;;;9.25;100.00
45403;BME280;47427;51.976;5.326;2024-02-21T05:36:37;101788.84;;;9.24;100.00
45403;BME280;47427;51.976;5.326;2024-02-21T05:39:40;101785.31;;;9.24;100.00
45403;BME280;47427;51.976;5.326;2024-02-21T05:42:42;101770.09;;;9.15;100.00
45403;BME280;47427;51.976;5.326;2024-02-21T05:45:45;101772.47;;;9.10;100.00
45403;BME280;47427;51.976;5.326;2024-02-21T05:48:47;101766.13;;;9.05;100.00
45403;BME280;47427;51.976;5.326;2024-02-21T05:51:50;101758.81;;;8.98;100.00
45403;BME280;47427;51.976;5.326;2024-02-21T05:54:52;101751.72;;;8.96;100.00
45403;BME280;47427;51.976;5.326;2024-02-21T05:57:54;101750.22;;;8.83;100.00
45403;BME280;47427;51.976;5.326;2024-02-21T06:00:58;101753.59;;;8.80;100.00
45403;BME280;47427;51.976;5.326;2024-02-21T06:04:00;101754.34;;;8.78;100.00
45403;BME280;47427;51.976;5.326;2024-02-21T06:07:02;101746.28;;;8.73;100.00
45403;BME280;47427;51.976;5.326;2024-02-21T06:10:06;101749.88;;;8.75;100.00
45403;BME280;47427;51.976;5.326;2024-02-21T06:13:09;101747.94;;;8.71;100.00
45403;BME280;47427;51.976;5.326;2024-02-21T06:16:12;101739.41;;;8.75;100.00
45403;BME280;47427;51.976;5.326;2024-02-21T06:19:14;101740.75;;;8.67;100.00
45403;BME280;47427;51.976;5.326;2024-02-21T06:22:16;101731.13;;;8.66;100.00
45403;BME280;47427;51.976;5.326;2024-02-21T06:25:19;101736.66;;;8.72;100.00
45403;BME280;47427;51.976;5.326;2024-02-21T06:28:22;101747.19;;;8.74;100.00
45403;BME280;47427;51.976;5.326;2024-02-21T06:31:25;101759.34;;;8.73;100.00
45403;BME280;47427;51.976;5.326;2024-02-21T06:34:27;101750.97;;;8.80;100.00
45403;BME280;47427;51.976;5.326;2024-02-21T06:37:28;101756.44;;;8.85;100.00
45403;BME280;47427;51.976;5.326;2024-02-21T06:40:31;101752.19;;;8.87;100.00
45403;BME280;47427;51.976;5.326;2024-02-21T06:43:40;101741.72;;;8.87;100.00
45403;BME280;47427;51.976;5.326;2024-02-21T06:46:42;101740.53;;;8.80;100.00
45403;BME280;47427;51.976;5.326;2024-02-21T06:49:49;101745.22;;;8.87;100.00
45403;BME280;47427;51.976;5.326;2024-02-21T06:52:53;101740.66;;;8.83;100.00
45403;BME280;47427;51.976;5.326;2024-02-21T06:55:55;101738.97;;;8.84;100.00
45403;BME280;47427;51.976;5.326;2024-02-21T06:58:57;101740.75;;;8.85;100.00
45403;BME280;47427;51.976;5.326;2024-02-21T07:01:59;101729.59;;;8.89;100.00
45403;BME280;47427;51.976;5.326;2024-02-21T07:05:02;101723.44;;;8.88;100.00
45403;BME280;47427;51.976;5.326;2024-02-21T07:08:04;101733.16;;;8.91;100.00
45403;BME280;47427;51.976;5.326;2024-02-21T07:11:07;101728.84;;;8.92;100.00
45403;BME280;47427;51.976;5.326;2024-02-21T07:14:10;101720.84;;;8.88;100.00
45403;BME280;47427;51.976;5.326;2024-02-21T07:17:13;101715.78;;;8.92;100.00
45403;BME280;47427;51.976;5.326;2024-02-21T07:20:16;101706.06;;;8.89;100.00
45403;BME280;47427;51.976;5.326;2024-02-21T07:23:19;101714.94;;;8.93;100.00
45403;BME280;47427;51.976;5.326;2024-02-21T07:26:20;101707.00;;;8.91;100.00
45403;BME280;47427;51.976;5.326;2024-02-21T07:29:24;101707.84;;;8.90;100.00
45403;BME280;47427;51.976;5.326;2024-02-21T07:32:26;101700.50;;;8.83;100.00
45403;BME280;47427;51.976;5.326;2024-02-21T07:35:29;101702.16;;;8.81;100.00
45403;BME280;47427;51.976;5.326;2024-02-21T07:38:31;101687.28;;;8.80;100.00
45403;BME280;47427;51.976;5.326;2024-02-21T07:41:33;101680.19;;;8.77;100.00
45403;BME280;47427;51.976;5.326;2024-02-21T07:44:37;101671.88;;;8.86;100.00
45403;BME280;47427;51.976;5.326;2024-02-21T07:47:39;101666.94;;;8.92;100.00
45403;BME280;47427;51.976;5.326;2024-02-21T07:50:41;101661.91;;;8.97;100.00
45403;BME280;47427;51.976;5.326;2024-02-21T07:53:44;101656.72;;;8.98;100.00
45403;BME280;47427;51.976;5.326;2024-02-21T07:56:48;101649.19;;;9.04;100.00
45403;BME280;47427;51.976;5.326;2024-02-21T07:59:50;101638.22;;;9.13;100.00
45403;BME280;47427;51.976;5.326;2024-02-21T08:02:52;101650.84;;;9.22;100.00
45403;BME280;47427;51.976;5.326;2024-02-21T08:05:55;101652.59;;;9.23;100.00
45403;BME280;47427;51.976;5.326;2024-02-21T08:08:57;101653.03;;;9.32;100.00
45403;BME280;47427;51.976;5.326;2024-02-21T08:12:00;101643.13;;;9.46;100.00
45403;BME280;47427;51.976;5.326;2024-02-21T08:15:03;101638.31;;;9.55;100.00
45403;BME280;47427;51.976;5.326;2024-02-21T08:18:06;101632.03;;;9.51;100.00
45403;BME280;47427;51.976;5.326;2024-02-21T08:21:09;101637.25;;;9.51;100.00
45403;BME280;47427;51.976;5.326;2024-02-21T08:24:16;101627.63;;;9.50;100.00
45403;BME280;47427;51.976;5.326;2024-02-21T08:27:18;101627.75;;;9.53;100.00
45403;BME280;47427;51.976;5.326;2024-02-21T08:30:21;101618.38;;;9.59;100.00
45403;BME280;47427;51.976;5.326;2024-02-21T08:33:23;101622.03;;;9.62;100.00
45403;BME280;47427;51.976;5.326;2024-02-21T08:36:28;101615.75;;;9.59;100.00
45403;BME280;47427;51.976;5.326;2024-02-21T08:39:31;101616.50;;;9.56;100.00
45403;BME280;47427;51.976;5.326;2024-02-21T08:42:34;101610.19;;;9.51;100.00
45403;BME280;47427;51.976;5.326;2024-02-21T08:45:37;101611.59;;;9.64;100.00
45403;BME280;47427;51.976;5.326;2024-02-21T08:48:40;101607.19;;;9.63;100.00
45403;BME280;47427;51.976;5.326;2024-02-21T08:51:43;101594.97;;;9.63;100.00
45403;BME280;47427;51.976;5.326;2024-02-21T08:54:45;101593.44;;;9.68;100.00
45403;BME280;47427;51.976;5.326;2024-02-21T08:57:47;101578.75;;;9.72;100.00
45403;BME280;47427;51.976;5.326;2024-02-21T09:00:50;101578.94;;;9.76;100.00
45403;BME280;47427;51.976;5.326;2024-02-21T09:03:53;101566.88;;;9.80;100.00
45403;BME280;47427;51.976;5.326;2024-02-21T09:06:55;101571.38;;;9.84;100.00
45403;BME280;47427;51.976;5.326;2024-02-21T09:09:58;101563.59;;;9.86;100.00
45403;BME280;47427;51.976;5.326;2024-02-21T09:13:00;101560.13;;;9.87;100.00
45403;BME280;47427;51.976;5.326;2024-02-21T09:16:06;101569.38;;;9.99;100.00
45403;BME280;47427;51.976;5.326;2024-02-21T09:19:07;101567.91;;;10.06;100.00
45403;BME280;47427;51.976;5.326;2024-02-21T09:22:13;101564.41;;;10.06;100.00
45403;BME280;47427;51.976;5.326;2024-02-21T09:25:16;101552.94;;;10.04;100.00
45403;BME280;47427;51.976;5.326;2024-02-21T09:28:19;101529.44;;;10.05;100.00
45403;BME280;47427;51.976;5.326;2024-02-21T09:31:21;101549.44;;;10.26;100.00
45403;BME280;47427;51.976;5.326;2024-02-21T09:34:24;101537.41;;;10.08;100.00
45403;BME280;47427;51.976;5.326;2024-02-21T09:37:27;101517.38;;;10.10;100.00
45403;BME280;47427;51.976;5.326;2024-02-21T09:40:30;101511.97;;;10.06;100.00
45403;BME280;47427;51.976;5.326;2024-02-21T09:43:34;101512.06;;;10.09;100.00
45403;BME280;47427;51.976;5.326;2024-02-21T09:47:02;101506.25;;;10.16;100.00
45403;BME280;47427;51.976;5.326;2024-02-21T09:50:07;101498.59;;;10.22;100.00
45403;BME280;47427;51.976;5.326;2024-02-21T09:53:12;101486.53;;;10.27;100.00
45403;BME280;47427;51.976;5.326;2024-02-21T09:56:18;101478.50;;;10.45;100.00
45403;BME280;47427;51.976;5.326;2024-02-21T09:59:21;101454.94;;;10.47;100.00
45403;BME280;47427;51.976;5.326;2024-02-21T10:02:24;101453.16;;;10.46;100.00
45403;BME280;47427;51.976;5.326;2024-02-21T10:05:28;101443.28;;;10.62;100.00
45403;BME280;47427;51.976;5.326;2024-02-21T10:08:30;101439.03;;;10.66;100.00
45403;BME280;47427;51.976;5.326;2024-02-21T10:11:32;101419.50;;;10.83;100.00
45403;BME280;47427;51.976;5.326;2024-02-21T10:14:38;101411.38;;;11.01;100.00
45403;BME280;47427;51.976;5.326;2024-02-21T10:17:42;101420.84;;;10.96;100.00
45403;BME280;47427;51.976;5.326;2024-02-21T10:20:45;101406.59;;;10.90;100.00
45403;BME280;47427;51.976;5.326;2024-02-21T10:24:06;101397.03;;;10.92;100.00
45403;BME280;47427;51.976;5.326;2024-02-21T10:27:09;101385.59;;;10.90;100.00
45403;BME280;47427;51.976;5.326;2024-02-21T10:30:14;101395.34;;;10.68;100.00
45403;BME280;47427;51.976;5.326;2024-02-21T10:33:17;101392.16;;;10.77;100.00
45403;BME280;47427;51.976;5.326;2024-02-21T10:36:24;101374.03;;;10.84;100.00
45403;BME280;47427;51.976;5.326;2024-02-21T10:39:29;101367.66;;;11.03;100.00
45403;BME280;47427;51.976;5.326;2024-02-21T10:42:34;101357.38;;;11.10;100.00
45403;BME280;47427;51.976;5.326;2024-02-21T10:45:39;101349.50;;;11.10;100.00
45403;BME280;47427;51.976;5.326;2024-02-21T10:48:45;101328.00;;;10.94;100.00
45403;BME280;47427;51.976;5.326;2024-02-21T10:51:47;101299.13;;;10.94;100.00
45403;BME280;47427;51.976;5.326;2024-02-21T10:55:02;101287.13;;;10.75;100.00
45403;BME280;47427;51.976;5.326;2024-02-21T10:58:06;101283.34;;;10.67;100.00
45403;BME280;47427;51.976;5.326;2024-02-21T11:01:09;101286.97;;;10.71;100.00
45403;BME280;47427;51.976;5.326;2024-02-21T11:04:12;101294.38;;;10.57;100.00
45403;BME280;47427;51.976;5.326;2024-02-21T11:07:14;101357.03;;;10.48;100.00
45403;BME280;47427;51.976;5.326;2024-02-21T11:10:23;101346.97;;;10.34;100.00
45403;BME280;47427;51.976;5.326;2024-02-21T11:13:35;101350.38;;;10.32;100.00
45403;BME280;47427;51.976;5.326;2024-02-21T11:16:41;101353.19;;;10.38;100.00
45403;BME280;47427;51.976;5.326;2024-02-21T11:19:43;101350.94;;;10.25;100.00
45403;BME280;47427;51.976;5.326;2024-02-21T11:22:46;101323.63;;;10.18;100.00
45403;BME280;47427;51.976;5.326;2024-02-21T11:25:50;101320.50;;;10.04;100.00
45403;BME280;47427;51.976;5.326;2024-02-21T11:29:01;101312.03;;;10.11;100.00
45403;BME280;47427;51.976;5.326;2024-02-21T11:32:04;101324.16;;;10.08;100.00
45403;BME280;47427;51.976;5.326;2024-02-21T11:35:07;101322.91;;;9.98;100.00
45403;BME280;47427;51.976;5.326;2024-02-21T11:38:12;101308.13;;;10.00;100.00
45403;BME280;47427;51.976;5.326;2024-02-21T11:41:19;101292.13;;;9.92;100.00
45403;BME280;47427;51.976;5.326;2024-02-21T11:44:42;101273.94;;;9.97;100.00
45403;BME280;47427;51.976;5.326;2024-02-21T11:47:44;101258.81;;;10.39;100.00
45403;BME280;47427;51.976;5.326;2024-02-21T11:50:56;101244.00;;;10.96;100.00
45403;BME280;47427;51.976;5.326;2024-02-21T11:53:59;101236.16;;;11.26;100.00
45403;BME280;47427;51.976;5.326;2024-02-21T11:57:01;101207.38;;;11.61;100.00
45403;BME280;47427;51.976;5.326;2024-02-21T12:00:16;101184.03;;;11.71;100.00
45403;BME280;47427;51.976;5.326;2024-02-21T12:03:19;101162.66;;;11.91;100.00
45403;BME280;47427;51.976;5.326;2024-02-21T12:06:22;101154.66;;;11.86;100.00
45403;BME280;47427;51.976;5.326;2024-02-21T12:09:25;101165.56;;;12.02;100.00
45403;BME280;47427;51.976;5.326;2024-02-21T12:12:28;101159.22;;;11.62;100.00
45403;BME280;47427;51.976;5.326;2024-02-21T12:15:31;101142.59;;;11.30;100.00
45403;BME280;47427;51.976;5.326;2024-02-21T12:18:34;101155.84;;;11.34;100.00
45403;BME280;47427;51.976;5.326;2024-02-21T12:21:37;101145.66;;;11.45;100.00
45403;BME280;47427;51.976;5.326;2024-02-21T12:24:38;101131.28;;;11.32;100.00
45403;BME280;47427;51.976;5.326;2024-02-21T12:27:42;101116.56;;;11.39;100.00
45403;BME280;47427;51.976;5.326;2024-02-21T12:30:44;101105.31;;;11.43;100.00
45403;BME280;47427;51.976;5.326;2024-02-21T12:33:47;101099.78;;;11.34;100.00
45403;BME280;47427;51.976;5.326;2024-02-21T12:36:49;101088.47;;;11.36;100.00
45403;BME280;47427;51.976;5.326;2024-02-21T12:40:11;101063.72;;;11.61;100.00
45403;BME280;47427;51.976;5.326;2024-02-21T12:43:14;101060.75;;;11.47;100.00
45403;BME280;47427;51.976;5.326;2024-02-21T12:46:17;101050.84;;;11.72;100.00
45403;BME280;47427;51.976;5.326;2024-02-21T12:49:19;101046.66;;;11.79;100.00
45403;BME280;47427;51.976;5.326;2024-02-21T12:52:21;101037.50;;;11.63;100.00
45403;BME280;47427;51.976;5.326;2024-02-21T12:55:24;101029.75;;;11.69;100.00
45403;BME280;47427;51.976;5.326;2024-02-21T12:58:27;101010.53;;;11.70;100.00
45403;BME280;47427;51.976;5.326;2024-02-21T13:01:30;101011.97;;;11.59;100.00
45403;BME280;47427;51.976;5.326;2024-02-21T13:04:33;100985.19;;;11.74;100.00
45403;BME280;47427;51.976;5.326;2024-02-21T13:07:36;100970.47;;;11.80;100.00
45403;BME280;47427;51.976;5.326;2024-02-21T13:10:39;100977.34;;;11.75;100.00
45403;BME280;47427;51.976;5.326;2024-02-21T13:13:40;100980.56;;;11.63;100.00
45403;BME280;47427;51.976;5.326;2024-02-21T13:17:02;100985.59;;;11.54;100.00
45403;BME280;47427;51.976;5.326;2024-02-21T13:20:04;100977.31;;;11.37;100.00
45403;BME280;47427;51.976;5.326;2024-02-21T13:23:08;100982.50;;;11.36;100.00
45403;BME280;47427;51.976;5.326;2024-02-21T13:26:10;100969.44;;;11.39;100.00
45403;BME280;47427;51.976;5.326;2024-02-21T13:29:13;100956.00;;;11.26;100.00
45403;BME280;47427;51.976;5.326;2024-02-21T13:32:16;100947.38;;;11.31;100.00
45403;BME280;47427;51.976;5.326;2024-02-21T13:35:19;100943.03;;;11.33;100.00
45403;BME280;47427;51.976;5.326;2024-02-21T13:38:20;100955.97;;;11.25;100.00
45403;BME280;47427;51.976;5.326;2024-02-21T13:41:23;100919.84;;;11.16;100.00
45403;BME280;47427;51.976;5.326;2024-02-21T13:44:26;100908.19;;;11.40;100.00
45403;BME280;47427;51.976;5.326;2024-02-21T13:47:29;100896.94;;;11.45;100.00
45403;BME280;47427;51.976;5.326;2024-02-21T13:50:31;100884.66;;;11.44;100.00
45403;BME280;47427;51.976;5.326;2024-02-21T13:53:34;100888.41;;;11.56;100.00
45403;BME280;47427;51.976;5.326;2024-02-21T13:56:37;100876.63;;;11.38;100.00
45403;BME280;47427;51.976;5.326;2024-02-21T13:59:40;100887.44;;;11.14;100.00
45403;BME280;47427;51.976;5.326;2024-02-21T14:02:43;100870.59;;;11.06;100.00
45403;BME280;47427;51.976;5.326;2024-02-21T14:05:45;100858.44;;;11.10;100.00
45403;BME280;47427;51.976;5.326;2024-02-21T14:08:50;100840.91;;;11.09;100.00
45403;BME280;47427;51.976;5.326;2024-02-21T14:11:54;100841.00;;;11.12;100.00
45403;BME280;47427;51.976;5.326;2024-02-21T14:14:56;100814.75;;;11.13;100.00
45403;BME280;47427;51.976;5.326;2024-02-21T14:18:00;100808.03;;;11.26;100.00
45403;BME280;47427;51.976;5.326;2024-02-21T14:21:04;100790.31;;;11.16;100.00
45403;BME280;47427;51.976;5.326;2024-02-21T14:24:07;100773.72;;;11.18;100.00
45403;BME280;47427;51.976;5.326;2024-02-21T14:27:10;100771.16;;;11.20;100.00
45403;BME280;47427;51.976;5.326;2024-02-21T14:30:13;100750.81;;;11.11;100.00
45403;BME280;47427;51.976;5.326;2024-02-21T14:33:16;100755.06;;;11.06;100.00
45403;BME280;47427;51.976;5.326;2024-02-21T14:36:19;100738.72;;;10.80;100.00
45403;BME280;47427;51.976;5.326;2024-02-21T14:39:22;100748.63;;;10.55;100.00
45403;BME280;47427;51.976;5.326;2024-02-21T14:42:24;100731.69;;;10.41;100.00
45403;BME280;47427;51.976;5.326;2024-02-21T14:45:28;100725.09;;;10.24;100.00
45403;BME280;47427;51.976;5.326;2024-02-21T14:48:31;100708.72;;;9.99;100.00
45403;BME280;47427;51.976;5.326;2024-02-21T14:51:35;100690.25;;;9.94;100.00
45403;BME280;47427;51.976;5.326;2024-02-21T14:54:37;100703.06;;;9.84;100.00
45403;BME280;47427;51.976;5.326;2024-02-21T14:57:40;100674.94;;;9.76;100.00
45403;BME280;47427;51.976;5.326;2024-02-21T15:00:46;100662.44;;;9.66;100.00
45403;BME280;47427;51.976;5.326;2024-02-21T15:03:49;100664.91;;;9.62;100.00
45403;BME280;47427;51.976;5.326;2024-02-21T15:06:51;100656.78;;;9.51;100.00
45403;BME280;47427;51.976;5.326;2024-02-21T15:09:53;100632.94;;;9.42;100.00
45403;BME280;47427;51.976;5.326;2024-02-21T15:12:56;100640.50;;;9.29;100.00
45403;BME280;47427;51.976;5.326;2024-02-21T15:15:59;100623.56;;;9.17;100.00
45403;BME280;47427;51.976;5.326;2024-02-21T15:19:00;100619.88;;;9.10;100.00
45403;BME280;47427;51.976;5.326;2024-02-21T15:22:03;100610.00;;;9.01;100.00
45403;BME280;47427;51.976;5.326;2024-02-21T15:25:07;100603.59;;;8.90;100.00
45403;BME280;47427;51.976;5.326;2024-02-21T15:28:15;100598.00;;;8.78;100.00
45403;BME280;47427;51.976;5.326;2024-02-21T15:31:23;100587.13;;;8.64;100.00
45403;BME280;47427;51.976;5.326;2024-02-21T15:34:26;100571.31;;;8.59;100.00
45403;BME280;47427;51.976;5.326;2024-02-21T15:37:29;100561.88;;;8.64;100.00
45403;BME280;47427;51.976;5.326;2024-02-21T15:40:32;100549.75;;;8.68;100.00
45403;BME280;47427;51.976;5.326;2024-02-21T15:43:36;100541.53;;;8.56;100.00
45403;BME280;47427;51.976;5.326;2024-02-21T15:46:40;100531.06;;;8.54;100.00
45403;BME280;47427;51.976;5.326;2024-02-21T15:49:43;100531.94;;;8.55;100.00
45403;BME280;47427;51.976;5.326;2024-02-21T15:52:46;100502.16;;;8.50;100.00
45403;BME280;47427;51.976;5.326;2024-02-21T15:55:47;100511.53;;;8.43;100.00